sensor_id;sensor_type;location;lat;lon;timestamp;P1;durP1;ratioP1;P2;durP2;ratioP2
23658;SDS011;12006;42.666;23.326;2022-12-07T00:00:47;39.70;;;23.87;;
23658;SDS011;12006;42.666;23.326;2022-12-07T00:04:12;35.83;;;23.20;;
23658;SDS011;12006;42.666;23.326;2022-12-07T00:07:36;34.47;;;22.43;;
23658;SDS011;12006;42.666;23.326;2022-12-07T00:11:01;34.93;;;24.50;;
23658;SDS011;12006;42.666;23.326;2022-12-07T00:14:25;33.00;;;22.63;;
23658;SDS011;12006;42.666;23.326;2022-12-07T00:17:49;27.73;;;21.47;;
23658;SDS011;12006;42.666;23.326;2022-12-07T00:21:14;31.03;;;21.90;;
23658;SDS011;12006;42.666;23.326;2022-12-07T00:24:38;33.50;;;22.50;;
23658;SDS011;12006;42.666;23.326;2022-12-07T00:28:02;36.83;;;24.03;;
23658;SDS011;12006;42.666;23.326;2022-12-07T00:31:29;36.80;;;23.17;;
23658;SDS011;12006;42.666;23.326;2022-12-07T00:34:53;29.23;;;22.03;;
23658;SDS011;12006;42.666;23.326;2022-12-07T00:38:20;30.97;;;20.20;;
23658;SDS011;12006;42.666;23.326;2022-12-07T00:41:44;29.90;;;20.10;;
23658;SDS011;12006;42.666;23.326;2022-12-07T00:45:08;27.70;;;17.77;;
23658;SDS011;12006;42.666;23.326;2022-12-07T00:48:32;32.17;;;19.87;;
23658;SDS011;12006;42.666;23.326;2022-12-07T00:51:42;27.10;;;18.67;;
23658;SDS011;12006;42.666;23.326;2022-12-07T00:55:06;33.60;;;17.87;;
23658;SDS011;12006;42.666;23.326;2022-12-07T00:58:33;28.73;;;18.70;;
23658;SDS011;12006;42.666;23.326;2022-12-07T01:01:57;29.60;;;19.43;;
23658;SDS011;12006;42.666;23.326;2022-12-07T01:05:21;26.83;;;18.90;;
23658;SDS011;12006;42.666;23.326;2022-12-07T01:08:46;27.90;;;19.23;;
23658;SDS011;12006;42.666;23.326;2022-12-07T01:12:10;29.00;;;19.53;;
23658;SDS011;12006;42.666;23.326;2022-12-07T01:15:34;31.80;;;21.23;;
23658;SDS011;12006;42.666;23.326;2022-12-07T01:19:03;31.13;;;19.63;;
23658;SDS011;12006;42.666;23.326;2022-12-07T01:22:28;31.77;;;20.77;;
23658;SDS011;12006;42.666;23.326;2022-12-07T01:25:59;33.20;;;20.30;;
23658;SDS011;12006;42.666;23.326;2022-12-07T01:29:24;31.83;;;20.27;;
23658;SDS011;12006;42.666;23.326;2022-12-07T01:32:48;30.87;;;20.07;;
23658;SDS011;12006;42.666;23.326;2022-12-07T01:39:35;38.17;;;23.07;;
23658;SDS011;12006;42.666;23.326;2022-12-07T01:42:59;29.87;;;20.50;;
23658;SDS011;12006;42.666;23.326;2022-12-07T01:46:34;33.53;;;21.30;;
23658;SDS011;12006;42.666;23.326;2022-12-07T01:49:58;27.47;;;19.60;;
23658;SDS011;12006;42.666;23.326;2022-12-07T01:53:25;26.63;;;19.77;;
23658;SDS011;12006;42.666;23.326;2022-12-07T01:56:51;28.87;;;19.13;;
23658;SDS011;12006;42.666;23.326;2022-12-07T02:00:18;32.97;;;22.27;;
23658;SDS011;12006;42.666;23.326;2022-12-07T02:03:43;31.03;;;22.03;;
23658;SDS011;12006;42.666;23.326;2022-12-07T02:07:08;32.37;;;22.53;;
23658;SDS011;12006;42.666;23.326;2022-12-07T02:10:33;34.03;;;22.10;;
23658;SDS011;12006;42.666;23.326;2022-12-07T02:13:57;33.37;;;20.23;;
23658;SDS011;12006;42.666;23.326;2022-12-07T02:17:32;31.70;;;21.63;;
23658;SDS011;12006;42.666;23.326;2022-12-07T02:21:09;30.43;;;20.83;;
23658;SDS011;12006;42.666;23.326;2022-12-07T02:24:54;33.27;;;22.27;;
23658;SDS011;12006;42.666;23.326;2022-12-07T02:36:10;33.10;;;21.47;;
23658;SDS011;12006;42.666;23.326;2022-12-07T02:39:44;32.00;;;20.00;;
23658;SDS011;12006;42.666;23.326;2022-12-07T02:43:24;36.40;;;24.97;;
23658;SDS011;12006;42.666;23.326;2022-12-07T02:47:05;37.33;;;25.40;;
23658;SDS011;12006;42.666;23.326;2022-12-07T02:50:32;40.73;;;26.83;;
23658;SDS011;12006;42.666;23.326;2022-12-07T02:53:56;35.77;;;25.53;;
23658;SDS011;12006;42.666;23.326;2022-12-07T03:01:46;38.17;;;25.20;;
23658;SDS011;12006;42.666;23.326;2022-12-07T03:05:26;37.77;;;24.10;;
23658;SDS011;12006;42.666;23.326;2022-12-07T03:09:01;34.47;;;24.57;;
23658;SDS011;12006;42.666;23.326;2022-12-07T03:16:40;33.53;;;22.53;;
23658;SDS011;12006;42.666;23.326;2022-12-07T03:20:06;38.20;;;25.77;;
23658;SDS011;12006;42.666;23.326;2022-12-07T03:23:34;36.17;;;23.03;;
23658;SDS011;12006;42.666;23.326;2022-12-07T03:27:08;39.10;;;25.33;;
23658;SDS011;12006;42.666;23.326;2022-12-07T03:30:37;41.80;;;27.43;;
23658;SDS011;12006;42.666;23.326;2022-12-07T03:37:29;34.90;;;25.00;;
23658;SDS011;12006;42.666;23.326;2022-12-07T03:44:24;36.87;;;24.47;;
23658;SDS011;12006;42.666;23.326;2022-12-07T03:55:17;39.53;;;25.63;;
23658;SDS011;12006;42.666;23.326;2022-12-07T03:58:43;38.97;;;23.63;;
23658;SDS011;12006;42.666;23.326;2022-12-07T04:02:08;34.93;;;24.77;;
23658;SDS011;12006;42.666;23.326;2022-12-07T04:05:35;36.40;;;26.10;;
23658;SDS011;12006;42.666;23.326;2022-12-07T04:08:59;37.60;;;25.07;;
23658;SDS011;12006;42.666;23.326;2022-12-07T04:12:23;37.07;;;24.93;;
23658;SDS011;12006;42.666;23.326;2022-12-07T04:15:47;40.03;;;25.80;;
23658;SDS011;12006;42.666;23.326;2022-12-07T04:19:14;43.87;;;25.97;;
23658;SDS011;12006;42.666;23.326;2022-12-07T04:22:38;36.53;;;24.80;;
23658;SDS011;12006;42.666;23.326;2022-12-07T04:26:02;39.20;;;24.07;;
23658;SDS011;12006;42.666;23.326;2022-12-07T04:29:26;38.13;;;24.77;;
23658;SDS011;12006;42.666;23.326;2022-12-07T04:32:50;40.80;;;26.10;;
23658;SDS011;12006;42.666;23.326;2022-12-07T04:36:14;43.07;;;24.83;;
23658;SDS011;12006;42.666;23.326;2022-12-07T04:39:38;42.80;;;24.40;;
23658;SDS011;12006;42.666;23.326;2022-12-07T04:43:02;37.53;;;25.10;;
23658;SDS011;12006;42.666;23.326;2022-12-07T04:46:28;36.47;;;25.93;;
23658;SDS011;12006;42.666;23.326;2022-12-07T04:49:53;42.17;;;25.70;;
23658;SDS011;12006;42.666;23.326;2022-12-07T04:53:17;38.53;;;24.83;;
23658;SDS011;12006;42.666;23.326;2022-12-07T04:56:41;43.67;;;25.03;;
23658;SDS011;12006;42.666;23.326;2022-12-07T04:59:57;39.93;;;25.33;;
23658;SDS011;12006;42.666;23.326;2022-12-07T05:03:21;45.47;;;26.63;;
23658;SDS011;12006;42.666;23.326;2022-12-07T05:06:45;41.77;;;26.47;;
23658;SDS011;12006;42.666;23.326;2022-12-07T05:10:09;44.90;;;26.03;;
23658;SDS011;12006;42.666;23.326;2022-12-07T05:13:34;48.63;;;25.73;;
23658;SDS011;12006;42.666;23.326;2022-12-07T05:16:58;37.27;;;24.13;;
23658;SDS011;12006;42.666;23.326;2022-12-07T05:19:58;41.57;;;25.37;;
23658;SDS011;12006;42.666;23.326;2022-12-07T05:23:22;35.40;;;21.93;;
23658;SDS011;12006;42.666;23.326;2022-12-07T05:26:31;42.97;;;25.17;;
23658;SDS011;12006;42.666;23.326;2022-12-07T05:29:56;41.53;;;25.87;;
23658;SDS011;12006;42.666;23.326;2022-12-07T05:33:09;45.30;;;26.43;;
23658;SDS011;12006;42.666;23.326;2022-12-07T05:36:33;41.80;;;23.43;;
23658;SDS011;12006;42.666;23.326;2022-12-07T05:39:57;44.07;;;25.53;;
23658;SDS011;12006;42.666;23.326;2022-12-07T05:43:26;43.43;;;27.47;;
23658;SDS011;12006;42.666;23.326;2022-12-07T05:46:26;45.43;;;28.50;;
23658;SDS011;12006;42.666;23.326;2022-12-07T05:49:49;54.97;;;28.23;;
23658;SDS011;12006;42.666;23.326;2022-12-07T05:53:14;42.20;;;25.47;;
23658;SDS011;12006;42.666;23.326;2022-12-07T05:56:33;47.07;;;25.70;;
23658;SDS011;12006;42.666;23.326;2022-12-07T05:59:57;40.97;;;24.77;;
23658;SDS011;12006;42.666;23.326;2022-12-07T06:03:21;42.87;;;25.23;;
23658;SDS011;12006;42.666;23.326;2022-12-07T06:06:34;40.73;;;25.10;;
23658;SDS011;12006;42.666;23.326;2022-12-07T06:09:58;43.37;;;24.27;;
23658;SDS011;12006;42.666;23.326;2022-12-07T06:13:40;35.77;;;21.50;;
23658;SDS011;12006;42.666;23.326;2022-12-07T06:16:42;42.03;;;22.97;;
23658;SDS011;12006;42.666;23.326;2022-12-07T06:20:06;43.40;;;26.80;;
23658;SDS011;12006;42.666;23.326;2022-12-07T06:23:30;47.87;;;24.97;;
23658;SDS011;12006;42.666;23.326;2022-12-07T06:26:54;39.63;;;22.87;;
23658;SDS011;12006;42.666;23.326;2022-12-07T06:30:20;42.53;;;23.03;;
23658;SDS011;12006;42.666;23.326;2022-12-07T06:33:44;50.73;;;27.53;;
23658;SDS011;12006;42.666;23.326;2022-12-07T06:37:08;41.57;;;26.23;;
23658;SDS011;12006;42.666;23.326;2022-12-07T06:40:32;39.63;;;22.93;;
23658;SDS011;12006;42.666;23.326;2022-12-07T06:43:56;36.23;;;22.17;;
23658;SDS011;12006;42.666;23.326;2022-12-07T06:47:20;38.63;;;21.37;;
23658;SDS011;12006;42.666;23.326;2022-12-07T06:50:45;51.40;;;30.93;;
23658;SDS011;12006;42.666;23.326;2022-12-07T06:54:09;47.67;;;25.60;;
23658;SDS011;12006;42.666;23.326;2022-12-07T06:57:34;42.93;;;26.33;;
23658;SDS011;12006;42.666;23.326;2022-12-07T07:00:57;48.70;;;27.70;;
23658;SDS011;12006;42.666;23.326;2022-12-07T07:04:21;42.67;;;27.83;;
23658;SDS011;12006;42.666;23.326;2022-12-07T07:07:48;39.23;;;25.67;;
23658;SDS011;12006;42.666;23.326;2022-12-07T07:11:12;38.97;;;24.33;;
23658;SDS011;12006;42.666;23.326;2022-12-07T07:14:36;37.37;;;24.10;;
23658;SDS011;12006;42.666;23.326;2022-12-07T07:17:21;38.37;;;25.30;;
23658;SDS011;12006;42.666;23.326;2022-12-07T07:20:45;33.27;;;21.67;;
23658;SDS011;12006;42.666;23.326;2022-12-07T07:24:09;35.97;;;23.10;;
23658;SDS011;12006;42.666;23.326;2022-12-07T07:27:33;35.47;;;21.93;;
23658;SDS011;12006;42.666;23.326;2022-12-07T07:30:57;32.17;;;21.00;;
23658;SDS011;12006;42.666;23.326;2022-12-07T07:34:21;30.57;;;20.90;;
23658;SDS011;12006;42.666;23.326;2022-12-07T07:37:45;28.63;;;19.83;;
23658;SDS011;12006;42.666;23.326;2022-12-07T07:41:09;30.07;;;19.47;;
23658;SDS011;12006;42.666;23.326;2022-12-07T07:44:33;29.70;;;19.87;;
23658;SDS011;12006;42.666;23.326;2022-12-07T07:47:57;30.63;;;18.77;;
23658;SDS011;12006;42.666;23.326;2022-12-07T07:51:21;30.53;;;19.77;;
23658;SDS011;12006;42.666;23.326;2022-12-07T07:54:45;27.90;;;19.57;;
23658;SDS011;12006;42.666;23.326;2022-12-07T07:58:16;30.40;;;20.73;;
23658;SDS011;12006;42.666;23.326;2022-12-07T08:01:40;30.47;;;19.57;;
23658;SDS011;12006;42.666;23.326;2022-12-07T08:05:05;33.27;;;23.20;;
23658;SDS011;12006;42.666;23.326;2022-12-07T08:07:46;30.43;;;19.50;;
23658;SDS011;12006;42.666;23.326;2022-12-07T08:11:10;35.03;;;20.70;;
23658;SDS011;12006;42.666;23.326;2022-12-07T08:14:34;33.03;;;20.67;;
23658;SDS011;12006;42.666;23.326;2022-12-07T08:17:58;30.97;;;20.63;;
23658;SDS011;12006;42.666;23.326;2022-12-07T08:21:22;29.10;;;19.63;;
23658;SDS011;12006;42.666;23.326;2022-12-07T08:24:46;29.37;;;19.87;;
23658;SDS011;12006;42.666;23.326;2022-12-07T08:28:10;33.07;;;21.17;;
23658;SDS011;12006;42.666;23.326;2022-12-07T08:31:30;33.60;;;22.67;;
23658;SDS011;12006;42.666;23.326;2022-12-07T08:34:48;31.47;;;21.10;;
23658;SDS011;12006;42.666;23.326;2022-12-07T08:37:44;30.93;;;21.50;;
23658;SDS011;12006;42.666;23.326;2022-12-07T08:40:16;32.60;;;21.97;;
23658;SDS011;12006;42.666;23.326;2022-12-07T08:43:40;30.90;;;21.63;;
23658;SDS011;12006;42.666;23.326;2022-12-07T08:47:05;30.67;;;21.90;;
23658;SDS011;12006;42.666;23.326;2022-12-07T08:50:37;31.63;;;21.90;;
23658;SDS011;12006;42.666;23.326;2022-12-07T08:54:03;35.43;;;22.80;;
23658;SDS011;12006;42.666;23.326;2022-12-07T08:57:28;31.43;;;21.47;;
23658;SDS011;12006;42.666;23.326;2022-12-07T09:00:33;31.17;;;22.03;;
23658;SDS011;12006;42.666;23.326;2022-12-07T09:03:24;33.63;;;24.03;;
23658;SDS011;12006;42.666;23.326;2022-12-07T09:06:48;35.30;;;22.03;;
23658;SDS011;12006;42.666;23.326;2022-12-07T09:10:11;33.17;;;21.30;;
23658;SDS011;12006;42.666;23.326;2022-12-07T09:13:35;28.67;;;19.63;;
23658;SDS011;12006;42.666;23.326;2022-12-07T09:16:27;30.10;;;20.43;;
23658;SDS011;12006;42.666;23.326;2022-12-07T09:19:51;29.40;;;19.87;;
23658;SDS011;12006;42.666;23.326;2022-12-07T09:22:29;28.47;;;20.77;;
23658;SDS011;12006;42.666;23.326;2022-12-07T09:25:53;34.13;;;22.50;;
23658;SDS011;12006;42.666;23.326;2022-12-07T09:28:37;32.43;;;22.23;;
23658;SDS011;12006;42.666;23.326;2022-12-07T09:32:01;33.87;;;24.37;;
23658;SDS011;12006;42.666;23.326;2022-12-07T09:35:09;34.93;;;23.47;;
23658;SDS011;12006;42.666;23.326;2022-12-07T09:38:34;34.90;;;24.00;;
23658;SDS011;12006;42.666;23.326;2022-12-07T09:42:03;37.17;;;23.40;;
23658;SDS011;12006;42.666;23.326;2022-12-07T09:44:53;34.20;;;23.17;;
23658;SDS011;12006;42.666;23.326;2022-12-07T09:48:25;33.70;;;24.10;;
23658;SDS011;12006;42.666;23.326;2022-12-07T09:51:13;35.37;;;24.60;;
23658;SDS011;12006;42.666;23.326;2022-12-07T09:54:39;37.23;;;23.60;;
23658;SDS011;12006;42.666;23.326;2022-12-07T09:58:05;33.50;;;23.97;;
23658;SDS011;12006;42.666;23.326;2022-12-07T10:01:30;38.47;;;23.10;;
23658;SDS011;12006;42.666;23.326;2022-12-07T10:05:09;35.37;;;24.60;;
23658;SDS011;12006;42.666;23.326;2022-12-07T10:08:35;35.33;;;24.07;;
23658;SDS011;12006;42.666;23.326;2022-12-07T10:23:00;31.53;;;22.97;;
23658;SDS011;12006;42.666;23.326;2022-12-07T10:26:38;31.43;;;23.20;;
23658;SDS011;12006;42.666;23.326;2022-12-07T10:30:07;28.93;;;22.20;;
23658;SDS011;12006;42.666;23.326;2022-12-07T10:33:58;33.23;;;24.60;;
23658;SDS011;12006;42.666;23.326;2022-12-07T10:37:41;31.30;;;21.47;;
23658;SDS011;12006;42.666;23.326;2022-12-07T10:41:09;29.70;;;19.90;;
23658;SDS011;12006;42.666;23.326;2022-12-07T10:44:41;27.83;;;19.17;;
23658;SDS011;12006;42.666;23.326;2022-12-07T11:13:59;27.13;;;20.50;;
23658;SDS011;12006;42.666;23.326;2022-12-07T11:21:21;26.90;;;20.77;;
23658;SDS011;12006;42.666;23.326;2022-12-07T11:29:04;30.80;;;21.57;;
23658;SDS011;12006;42.666;23.326;2022-12-07T11:39:51;31.80;;;21.03;;
23658;SDS011;12006;42.666;23.326;2022-12-07T11:47:00;24.77;;;19.57;;
23658;SDS011;12006;42.666;23.326;2022-12-07T11:50:41;30.63;;;20.33;;
23658;SDS011;12006;42.666;23.326;2022-12-07T11:54:18;21.87;;;15.63;;
23658;SDS011;12006;42.666;23.326;2022-12-07T11:57:51;23.20;;;17.10;;
23658;SDS011;12006;42.666;23.326;2022-12-07T12:23:48;21.57;;;14.70;;
23658;SDS011;12006;42.666;23.326;2022-12-07T12:27:24;20.67;;;14.00;;
23658;SDS011;12006;42.666;23.326;2022-12-07T12:35:01;20.03;;;15.00;;
23658;SDS011;12006;42.666;23.326;2022-12-07T12:38:51;24.57;;;15.43;;
23658;SDS011;12006;42.666;23.326;2022-12-07T12:42:46;16.20;;;12.90;;
23658;SDS011;12006;42.666;23.326;2022-12-07T12:50:39;21.60;;;15.53;;
23658;SDS011;12006;42.666;23.326;2022-12-07T12:54:14;26.30;;;15.80;;
23658;SDS011;12006;42.666;23.326;2022-12-07T12:57:45;22.63;;;16.20;;
23658;SDS011;12006;42.666;23.326;2022-12-07T13:05:00;15.53;;;10.63;;
23658;SDS011;12006;42.666;23.326;2022-12-07T13:08:42;12.50;;;9.37;;
23658;SDS011;12006;42.666;23.326;2022-12-07T13:12:12;19.67;;;11.80;;
23658;SDS011;12006;42.666;23.326;2022-12-07T13:23:09;14.63;;;9.90;;
23658;SDS011;12006;42.666;23.326;2022-12-07T13:26:38;17.70;;;10.47;;
23658;SDS011;12006;42.666;23.326;2022-12-07T13:30:15;14.43;;;10.73;;
23658;SDS011;12006;42.666;23.326;2022-12-07T13:33:48;16.67;;;10.97;;
23658;SDS011;12006;42.666;23.326;2022-12-07T13:37:28;15.33;;;11.53;;
23658;SDS011;12006;42.666;23.326;2022-12-07T13:41:10;18.10;;;11.40;;
23658;SDS011;12006;42.666;23.326;2022-12-07T13:44:44;15.90;;;11.73;;
23658;SDS011;12006;42.666;23.326;2022-12-07T13:48:15;16.07;;;11.53;;
23658;SDS011;12006;42.666;23.326;2022-12-07T13:51:44;16.80;;;12.37;;
23658;SDS011;12006;42.666;23.326;2022-12-07T13:55:13;18.20;;;11.30;;
23658;SDS011;12006;42.666;23.326;2022-12-07T13:58:39;14.23;;;11.17;;
23658;SDS011;12006;42.666;23.326;2022-12-07T14:02:16;15.77;;;11.67;;
23658;SDS011;12006;42.666;23.326;2022-12-07T14:05:41;18.80;;;11.93;;
23658;SDS011;12006;42.666;23.326;2022-12-07T14:12:50;25.63;;;17.07;;
23658;SDS011;12006;42.666;23.326;2022-12-07T14:16:22;22.93;;;16.47;;
23658;SDS011;12006;42.666;23.326;2022-12-07T14:23:25;21.37;;;13.50;;
23658;SDS011;12006;42.666;23.326;2022-12-07T14:26:49;18.50;;;12.90;;
23658;SDS011;12006;42.666;23.326;2022-12-07T14:30:18;18.77;;;11.33;;
23658;SDS011;12006;42.666;23.326;2022-12-07T14:33:43;14.63;;;11.57;;
23658;SDS011;12006;42.666;23.326;2022-12-07T14:37:17;17.83;;;12.43;;
23658;SDS011;12006;42.666;23.326;2022-12-07T14:40:43;19.57;;;12.80;;
23658;SDS011;12006;42.666;23.326;2022-12-07T14:44:17;19.27;;;12.97;;
23658;SDS011;12006;42.666;23.326;2022-12-07T14:47:44;23.87;;;13.40;;
23658;SDS011;12006;42.666;23.326;2022-12-07T14:51:08;24.83;;;15.17;;
23658;SDS011;12006;42.666;23.326;2022-12-07T14:54:53;28.07;;;15.00;;
23658;SDS011;12006;42.666;23.326;2022-12-07T14:58:17;28.30;;;13.93;;
23658;SDS011;12006;42.666;23.326;2022-12-07T15:01:42;24.77;;;14.13;;
23658;SDS011;12006;42.666;23.326;2022-12-07T15:05:06;26.67;;;14.10;;
23658;SDS011;12006;42.666;23.326;2022-12-07T15:08:31;27.80;;;15.47;;
23658;SDS011;12006;42.666;23.326;2022-12-07T15:11:55;26.83;;;15.67;;
23658;SDS011;12006;42.666;23.326;2022-12-07T15:15:19;24.63;;;14.97;;
23658;SDS011;12006;42.666;23.326;2022-12-07T15:18:44;27.63;;;15.53;;
23658;SDS011;12006;42.666;23.326;2022-12-07T15:22:08;30.50;;;15.63;;
23658;SDS011;12006;42.666;23.326;2022-12-07T15:25:32;27.30;;;16.13;;
23658;SDS011;12006;42.666;23.326;2022-12-07T15:28:56;31.30;;;15.10;;
23658;SDS011;12006;42.666;23.326;2022-12-07T15:32:20;31.67;;;15.37;;
23658;SDS011;12006;42.666;23.326;2022-12-07T15:35:44;36.87;;;19.83;;
23658;SDS011;12006;42.666;23.326;2022-12-07T15:39:09;33.70;;;16.43;;
23658;SDS011;12006;42.666;23.326;2022-12-07T15:42:34;31.67;;;17.77;;
23658;SDS011;12006;42.666;23.326;2022-12-07T15:46:16;30.43;;;17.80;;
23658;SDS011;12006;42.666;23.326;2022-12-07T15:49:40;31.90;;;16.73;;
23658;SDS011;12006;42.666;23.326;2022-12-07T15:53:05;34.90;;;17.53;;
23658;SDS011;12006;42.666;23.326;2022-12-07T15:56:29;39.50;;;17.43;;
23658;SDS011;12006;42.666;23.326;2022-12-07T15:59:53;43.00;;;19.27;;
23658;SDS011;12006;42.666;23.326;2022-12-07T16:03:17;35.20;;;18.40;;
23658;SDS011;12006;42.666;23.326;2022-12-07T16:06:41;31.00;;;18.77;;
23658;SDS011;12006;42.666;23.326;2022-12-07T16:10:05;33.43;;;18.70;;
23658;SDS011;12006;42.666;23.326;2022-12-07T16:13:31;36.03;;;17.77;;
23658;SDS011;12006;42.666;23.326;2022-12-07T16:16:57;47.50;;;21.33;;
23658;SDS011;12006;42.666;23.326;2022-12-07T16:20:20;33.70;;;18.97;;
23658;SDS011;12006;42.666;23.326;2022-12-07T16:23:44;37.00;;;18.73;;
23658;SDS011;12006;42.666;23.326;2022-12-07T16:27:08;37.87;;;20.73;;
23658;SDS011;12006;42.666;23.326;2022-12-07T16:30:33;39.73;;;21.00;;
23658;SDS011;12006;42.666;23.326;2022-12-07T16:33:57;37.30;;;19.77;;
23658;SDS011;12006;42.666;23.326;2022-12-07T16:37:21;43.73;;;22.33;;
23658;SDS011;12006;42.666;23.326;2022-12-07T16:40:46;42.10;;;22.13;;
23658;SDS011;12006;42.666;23.326;2022-12-07T16:44:11;41.00;;;20.70;;
23658;SDS011;12006;42.666;23.326;2022-12-07T16:47:38;44.87;;;21.63;;
23658;SDS011;12006;42.666;23.326;2022-12-07T16:51:07;42.90;;;21.23;;
23658;SDS011;12006;42.666;23.326;2022-12-07T16:54:32;52.23;;;22.63;;
23658;SDS011;12006;42.666;23.326;2022-12-07T16:57:56;44.60;;;22.30;;
23658;SDS011;12006;42.666;23.326;2022-12-07T17:01:20;36.23;;;22.07;;
23658;SDS011;12006;42.666;23.326;2022-12-07T17:04:44;33.20;;;21.20;;
23658;SDS011;12006;42.666;23.326;2022-12-07T17:08:09;46.83;;;25.07;;
23658;SDS011;12006;42.666;23.326;2022-12-07T17:11:34;39.97;;;22.83;;
23658;SDS011;12006;42.666;23.326;2022-12-07T17:14:59;57.50;;;23.87;;
23658;SDS011;12006;42.666;23.326;2022-12-07T17:18:29;49.33;;;27.63;;
23658;SDS011;12006;42.666;23.326;2022-12-07T17:21:53;46.17;;;23.03;;
23658;SDS011;12006;42.666;23.326;2022-12-07T17:25:17;48.53;;;25.27;;
23658;SDS011;12006;42.666;23.326;2022-12-07T17:28:43;51.80;;;26.43;;
23658;SDS011;12006;42.666;23.326;2022-12-07T17:32:07;41.30;;;24.23;;
23658;SDS011;12006;42.666;23.326;2022-12-07T17:35:31;51.57;;;23.53;;
23658;SDS011;12006;42.666;23.326;2022-12-07T17:38:56;41.60;;;23.63;;
23658;SDS011;12006;42.666;23.326;2022-12-07T17:42:22;41.80;;;23.67;;
23658;SDS011;12006;42.666;23.326;2022-12-07T17:45:46;44.87;;;25.37;;
23658;SDS011;12006;42.666;23.326;2022-12-07T17:49:10;47.37;;;26.27;;
23658;SDS011;12006;42.666;23.326;2022-12-07T17:52:38;51.53;;;25.23;;
23658;SDS011;12006;42.666;23.326;2022-12-07T17:56:02;43.43;;;26.03;;
23658;SDS011;12006;42.666;23.326;2022-12-07T17:59:26;46.30;;;26.33;;
23658;SDS011;12006;42.666;23.326;2022-12-07T18:02:50;48.17;;;26.50;;
23658;SDS011;12006;42.666;23.326;2022-12-07T18:06:14;46.97;;;27.97;;
23658;SDS011;12006;42.666;23.326;2022-12-07T18:09:38;48.23;;;27.63;;
23658;SDS011;12006;42.666;23.326;2022-12-07T18:13:02;47.63;;;27.60;;
23658;SDS011;12006;42.666;23.326;2022-12-07T18:16:27;52.03;;;27.80;;
23658;SDS011;12006;42.666;23.326;2022-12-07T18:19:52;43.50;;;26.27;;
23658;SDS011;12006;42.666;23.326;2022-12-07T18:23:15;46.83;;;27.43;;
23658;SDS011;12006;42.666;23.326;2022-12-07T18:26:40;45.57;;;28.17;;
23658;SDS011;12006;42.666;23.326;2022-12-07T18:30:05;53.17;;;29.47;;
23658;SDS011;12006;42.666;23.326;2022-12-07T18:33:29;49.27;;;30.00;;
23658;SDS011;12006;42.666;23.326;2022-12-07T18:36:54;53.63;;;32.97;;
23658;SDS011;12006;42.666;23.326;2022-12-07T18:40:18;48.97;;;30.23;;
23658;SDS011;12006;42.666;23.326;2022-12-07T18:43:42;54.93;;;31.57;;
23658;SDS011;12006;42.666;23.326;2022-12-07T18:47:06;52.30;;;33.40;;
23658;SDS011;12006;42.666;23.326;2022-12-07T18:50:31;55.73;;;34.17;;
23658;SDS011;12006;42.666;23.326;2022-12-07T18:53:55;62.43;;;34.70;;
23658;SDS011;12006;42.666;23.326;2022-12-07T18:57:19;50.87;;;33.63;;
23658;SDS011;12006;42.666;23.326;2022-12-07T19:00:43;54.80;;;33.77;;
23658;SDS011;12006;42.666;23.326;2022-12-07T19:04:08;58.63;;;37.73;;
23658;SDS011;12006;42.666;23.326;2022-12-07T19:07:32;54.73;;;37.80;;
23658;SDS011;12006;42.666;23.326;2022-12-07T19:10:56;56.60;;;35.70;;
23658;SDS011;12006;42.666;23.326;2022-12-07T19:14:28;57.23;;;30.73;;
23658;SDS011;12006;42.666;23.326;2022-12-07T19:17:52;47.93;;;31.20;;
23658;SDS011;12006;42.666;23.326;2022-12-07T19:21:16;50.33;;;34.27;;
23658;SDS011;12006;42.666;23.326;2022-12-07T19:24:43;57.03;;;32.57;;
23658;SDS011;12006;42.666;23.326;2022-12-07T19:28:07;42.50;;;27.70;;
23658;SDS011;12006;42.666;23.326;2022-12-07T19:31:31;39.03;;;25.23;;
23658;SDS011;12006;42.666;23.326;2022-12-07T19:34:55;42.43;;;27.47;;
23658;SDS011;12006;42.666;23.326;2022-12-07T19:38:19;39.07;;;26.23;;
23658;SDS011;12006;42.666;23.326;2022-12-07T19:41:43;40.60;;;26.63;;
23658;SDS011;12006;42.666;23.326;2022-12-07T19:45:07;43.30;;;27.30;;
23658;SDS011;12006;42.666;23.326;2022-12-07T19:48:33;48.63;;;28.53;;
23658;SDS011;12006;42.666;23.326;2022-12-07T19:51:59;40.13;;;26.57;;
23658;SDS011;12006;42.666;23.326;2022-12-07T19:55:26;35.47;;;24.87;;
23658;SDS011;12006;42.666;23.326;2022-12-07T19:58:51;40.33;;;25.53;;
23658;SDS011;12006;42.666;23.326;2022-12-07T20:02:15;39.73;;;27.93;;
23658;SDS011;12006;42.666;23.326;2022-12-07T20:05:39;41.43;;;25.40;;
23658;SDS011;12006;42.666;23.326;2022-12-07T20:09:03;37.53;;;25.60;;
23658;SDS011;12006;42.666;23.326;2022-12-07T20:12:27;40.27;;;25.47;;
23658;SDS011;12006;42.666;23.326;2022-12-07T20:15:56;41.93;;;25.53;;
23658;SDS011;12006;42.666;23.326;2022-12-07T20:19:20;37.77;;;26.00;;
23658;SDS011;12006;42.666;23.326;2022-12-07T20:22:44;33.33;;;22.80;;
23658;SDS011;12006;42.666;23.326;2022-12-07T20:26:09;38.40;;;23.53;;
23658;SDS011;12006;42.666;23.326;2022-12-07T20:29:33;35.97;;;24.27;;
23658;SDS011;12006;42.666;23.326;2022-12-07T20:32:57;36.10;;;24.60;;
23658;SDS011;12006;42.666;23.326;2022-12-07T20:36:23;40.67;;;24.70;;
23658;SDS011;12006;42.666;23.326;2022-12-07T20:39:47;45.23;;;27.03;;
23658;SDS011;12006;42.666;23.326;2022-12-07T20:43:13;42.60;;;25.87;;
23658;SDS011;12006;42.666;23.326;2022-12-07T20:46:37;38.03;;;25.47;;
23658;SDS011;12006;42.666;23.326;2022-12-07T20:50:02;45.70;;;25.00;;
23658;SDS011;12006;42.666;23.326;2022-12-07T20:53:29;35.10;;;24.17;;
23658;SDS011;12006;42.666;23.326;2022-12-07T20:56:53;39.10;;;23.60;;
23658;SDS011;12006;42.666;23.326;2022-12-07T21:00:17;39.43;;;24.97;;
23658;SDS011;12006;42.666;23.326;2022-12-07T21:03:41;33.73;;;23.80;;
23658;SDS011;12006;42.666;23.326;2022-12-07T21:07:05;36.40;;;23.77;;
23658;SDS011;12006;42.666;23.326;2022-12-07T21:10:29;40.47;;;26.33;;
23658;SDS011;12006;42.666;23.326;2022-12-07T21:13:55;42.53;;;25.80;;
23658;SDS011;12006;42.666;23.326;2022-12-07T21:17:19;38.17;;;27.40;;
23658;SDS011;12006;42.666;23.326;2022-12-07T21:20:43;34.13;;;24.43;;
23658;SDS011;12006;42.666;23.326;2022-12-07T21:24:07;44.63;;;26.40;;
23658;SDS011;12006;42.666;23.326;2022-12-07T21:27:31;40.37;;;25.90;;
23658;SDS011;12006;42.666;23.326;2022-12-07T21:30:57;50.83;;;31.27;;
23658;SDS011;12006;42.666;23.326;2022-12-07T21:34:21;38.10;;;25.77;;
23658;SDS011;12006;42.666;23.326;2022-12-07T21:37:44;40.37;;;24.57;;
23658;SDS011;12006;42.666;23.326;2022-12-07T21:41:09;39.50;;;28.57;;
23658;SDS011;12006;42.666;23.326;2022-12-07T21:44:33;46.70;;;28.83;;
23658;SDS011;12006;42.666;23.326;2022-12-07T21:47:58;46.90;;;33.37;;
23658;SDS011;12006;42.666;23.326;2022-12-07T21:51:24;46.50;;;33.20;;
23658;SDS011;12006;42.666;23.326;2022-12-07T21:54:48;52.37;;;32.27;;
23658;SDS011;12006;42.666;23.326;2022-12-07T21:58:12;48.03;;;32.13;;